Golts, Maryland
Current Conditions -  °F | °C
As of 7:58 PM on Sunday 21 Dec 2014 (Local Time) from KDOV Reporting Station
Clear Clear  
Wind Chill: 20°   Ceiling: Unl
Heat Index: 28°   Visibility: 10mi
Dew Point: 24°   Wind: 7mph
Humidity: 85%   Direction: 360°N
Pressure: 30.31"   Gusts: NA
Location:  39.3314°N, 75.8397°W
Report Text: KDOV 220058Z AUTO 36006KT 10SM CLR M02/M05 A3031 RMK AO2 SLP268 T10241046
Loading
Personal Weather Stations






























Interactive Weather Map New forecast layout! Learn more

10-Day Weather Forecast

Advertisements
Track Severe Weather on mobile